Time;durP1;ratioP1;P1;durP2;ratioP2;P2;SDS_P1;SDS_P2;PMS_P1;PMS_P2;Temp;Humidity;BMP_temperature;BMP_pressure;BME280_temperature;BME280_humidity;BME280_pressure;Samples;Min_cycle;Max_cycle;Signal;HPM_P1;HPM_P2
2021/10/31 00:01:30;;;;;;;5.10;1.80;;;20.80;59.40;;;;;;5033066;28;20025;-70
2021/10/31 00:03:57;;;;;;;5.22;1.48;;;20.70;58.40;;;;;;5033306;28;20025;-71
2021/10/31 00:06:24;;;;;;;4.20;1.30;;;20.80;58.10;;;;;;5034119;28;20025;-71
2021/10/31 00:08:51;;;;;;;4.30;1.63;;;21.00;58.40;;;;;;5033120;28;20403;-69
2021/10/31 00:11:19;;;;;;;4.40;1.55;;;21.20;59.80;;;;;;5032907;28;20033;-71
2021/10/31 00:13:46;;;;;;;3.72;1.08;;;21.90;57.00;;;;;;5030050;28;20423;-72
2021/10/31 00:16:14;;;;;;;5.25;1.70;;;22.70;56.80;;;;;;5031420;28;20025;-69
2021/10/31 00:18:42;;;;;;;6.57;1.67;;;23.60;51.20;;;;;;5033560;28;20017;-70
2021/10/31 00:21:09;;;;;;;2.05;1.10;;;23.10;51.50;;;;;;5033892;28;20030;-71
2021/10/31 00:23:36;;;;;;;7.00;1.95;;;22.40;49.60;;;;;;5033142;28;20025;-69
2021/10/31 00:26:03;;;;;;;3.42;1.20;;;22.10;54.20;;;;;;5033339;28;20376;-74
2021/10/31 00:28:30;;;;;;;3.15;1.13;;;22.70;54.10;;;;;;5032210;28;20468;-67
2021/10/31 00:30:57;;;;;;;4.28;1.20;;;23.30;48.90;;;;;;5028333;28;20079;-67
2021/10/31 00:33:24;;;;;;;10.95;2.30;;;23.90;49.50;;;;;;5032634;28;20355;-69
2021/10/31 00:35:51;;;;;;;2.28;0.90;;;24.50;52.00;;;;;;5032507;28;20029;-65
2021/10/31 00:38:18;;;;;;;4.35;1.10;;;25.00;44.20;;;;;;5027231;28;20483;-66
2021/10/31 00:40:45;;;;;;;2.58;1.13;;;25.20;43.80;;;;;;5031422;28;20021;-68
2021/10/31 00:43:12;;;;;;;4.55;1.40;;;25.60;43.00;;;;;;5033091;28;20029;-71
2021/10/31 00:45:39;;;;;;;4.28;1.38;;;25.60;45.50;;;;;;5032808;28;20029;-66
2021/10/31 00:48:06;;;;;;;2.72;1.17;;;26.00;41.30;;;;;;5032493;28;20028;-65
2021/10/31 00:50:33;;;;;;;4.00;1.85;;;26.00;44.60;;;;;;5032602;28;20021;-68
2021/10/31 00:53:02;;;;;;;6.18;3.92;;;26.20;39.80;;;;;;5082291;22;20076;-68
2021/10/31 00:55:30;;;;;;;6.45;2.58;;;25.90;42.30;;;;;;5041983;28;20542;-69
2021/10/31 00:57:58;;;;;;;5.28;3.13;;;25.50;43.80;;;;;;5053388;28;20063;-72
2021/10/31 01:00:25;;;;;;;3.83;1.50;;;24.60;44.50;;;;;;5052039;28;20087;-67
2021/10/31 01:02:53;;;;;;;4.22;1.20;;;24.00;45.50;;;;;;5058538;28;20033;-68
2021/10/31 01:05:26;;;;;;;3.03;1.30;;;23.70;45.20;;;;;;5053334;28;20033;-70
2021/10/31 01:08:03;;;;;;;2.80;1.30;;;24.40;44.20;;;;;;5052520;28;20032;-68
2021/10/31 01:10:57;;;;;;;3.33;1.00;;;25.20;42.80;;;;;;5052687;28;20566;-69
2021/10/31 01:13:24;;;;;;;3.08;1.15;;;25.90;39.50;;;;;;5052815;28;20036;-69
2021/10/31 01:16:22;;;;;;;2.35;0.90;;;26.00;41.30;;;;;;5052682;28;20020;-71
2021/10/31 01:19:13;;;;;;;2.92;1.20;;;26.10;41.20;;;;;;5040810;28;21006;-70
2021/10/31 01:21:58;;;;;;;2.88;0.90;;;26.20;37.10;;;;;;5053737;28;20036;-69
2021/10/31 01:24:49;;;;;;;3.85;1.08;;;25.90;37.60;;;;;;5053382;28;20036;-67
2021/10/31 01:27:19;;;;;;;3.65;1.23;;;26.00;42.60;;;;;;5050829;28;20021;-70
2021/10/31 01:30:00;;;;;;;2.47;1.02;;;26.50;41.40;;;;;;5052399;28;20025;-69
2021/10/31 01:32:39;;;;;;;2.22;0.80;;;26.80;39.80;;;;;;5052631;28;20333;-67
2021/10/31 01:35:32;;;;;;;5.82;1.38;;;26.50;39.10;;;;;;5050970;28;20057;-67
2021/10/31 01:38:29;;;;;;;4.05;1.00;;;26.40;36.20;;;;;;5047185;28;20025;-70
2021/10/31 01:41:10;;;;;;;2.03;1.00;;;25.10;36.90;;;;;;5052423;28;20021;-67
2021/10/31 01:43:58;;;;;;;2.45;1.00;;;24.10;40.00;;;;;;5052709;28;20049;-69
2021/10/31 01:46:52;;;;;;;3.83;1.10;;;24.30;38.90;;;;;;5052528;28;20056;-69
2021/10/31 01:49:33;;;;;;;2.45;0.95;;;24.80;38.20;;;;;;5051843;28;20049;-69
2021/10/31 01:52:04;;;;;;;1.55;1.10;;;24.10;37.60;;;;;;5049594;28;20028;-69
2021/10/31 01:54:59;;;;;;;2.08;0.90;;;24.00;38.30;;;;;;5052298;28;20048;-66
2021/10/31 01:57:28;;;;;;;5.15;1.67;;;24.30;39.60;;;;;;5049015;28;20102;-66
2021/10/31 02:00:14;;;;;;;2.78;0.90;;;24.70;40.10;;;;;;5052326;28;20036;-69
2021/10/31 02:02:45;;;;;;;5.05;1.10;;;24.70;41.70;;;;;;5054117;28;20033;-65
2021/10/31 02:05:16;;;;;;;2.10;0.85;;;25.20;40.20;;;;;;5058289;28;20029;-66
2021/10/31 02:07:50;;;;;;;1.92;0.85;;;25.80;39.40;;;;;;5050764;28;20028;-65
2021/10/31 02:10:18;;;;;;;4.20;0.93;;;26.00;38.10;;;;;;5049301;28;20410;-66
2021/10/31 02:12:47;;;;;;;3.83;0.80;;;26.50;38.70;;;;;;5049346;28;20108;-67
2021/10/31 02:15:20;;;;;;;3.30;0.93;;;26.80;37.80;;;;;;5042872;28;20041;-68
2021/10/31 02:17:51;;;;;;;2.10;0.70;;;26.70;37.20;;;;;;5045924;28;20014;-67
2021/10/31 02:20:19;;;;;;;2.47;0.90;;;26.60;37.20;;;;;;5039180;28;20028;-68
2021/10/31 02:23:01;;;;;;;3.30;1.10;;;26.80;39.60;;;;;;5047643;28;20472;-66
2021/10/31 02:25:29;;;;;;;4.00;1.10;;;27.10;38.10;;;;;;5048473;28;20082;-69
2021/10/31 02:27:57;;;;;;;2.22;0.98;;;27.40;36.60;;;;;;5044507;28;20304;-68
2021/10/31 02:30:24;;;;;;;3.83;1.20;;;27.50;37.30;;;;;;5050853;28;20421;-70
2021/10/31 02:32:52;;;;;;;5.13;1.00;;;27.40;34.10;;;;;;5040724;28;20404;-69
2021/10/31 02:35:21;;;;;;;4.10;1.17;;;26.80;34.70;;;;;;5045881;28;20246;-68
2021/10/31 02:37:48;;;;;;;3.60;0.90;;;26.10;34.70;;;;;;5042784;28;20021;-66
2021/10/31 02:40:18;;;;;;;4.47;1.42;;;25.60;35.30;;;;;;5050484;28;20013;-71
2021/10/31 02:42:46;;;;;;;6.60;1.08;;;25.20;37.10;;;;;;5051572;28;20035;-68
2021/10/31 02:45:14;;;;;;;3.78;1.13;;;25.70;38.90;;;;;;5050063;28;20021;-69
2021/10/31 02:47:44;;;;;;;3.30;1.17;;;26.00;36.50;;;;;;5056954;28;20402;-70
2021/10/31 02:50:25;;;;;;;3.80;1.13;;;25.60;37.80;;;;;;5062470;28;20028;-69
2021/10/31 02:53:10;;;;;;;3.00;1.08;;;24.80;39.40;;;;;;5055430;28;20108;-71
2021/10/31 02:55:54;;;;;;;4.07;0.90;;;25.20;39.30;;;;;;5058055;28;20069;-72
2021/10/31 02:58:32;;;;;;;2.85;1.17;;;25.50;38.90;;;;;;5057016;28;20024;-70
2021/10/31 03:01:02;;;;;;;3.75;1.60;;;25.30;39.70;;;;;;5059147;28;20066;-69
2021/10/31 03:03:33;;;;;;;4.97;1.33;;;24.90;41.10;;;;;;5065116;28;20020;-66
2021/10/31 03:06:03;;;;;;;5.32;1.15;;;24.70;40.70;;;;;;5049716;28;20021;-70
2021/10/31 03:08:31;;;;;;;3.35;1.05;;;24.10;39.40;;;;;;5055155;28;20060;-73
2021/10/31 03:11:02;;;;;;;4.45;1.00;;;23.50;41.10;;;;;;5057923;28;20023;-68
2021/10/31 03:13:29;;;;;;;4.38;1.35;;;23.50;42.90;;;;;;5057757;28;20024;-70
2021/10/31 03:15:57;;;;;;;4.60;1.55;;;24.40;42.00;;;;;;5056807;28;20013;-68
2021/10/31 03:18:24;;;;;;;2.60;1.27;;;25.00;39.50;;;;;;5055642;28;20325;-67
2021/10/31 03:20:51;;;;;;;2.83;0.93;;;25.40;39.50;;;;;;5057241;28;20020;-69
2021/10/31 03:23:18;;;;;;;1.85;1.00;;;25.90;40.80;;;;;;5058972;28;20474;-69
2021/10/31 03:25:45;;;;;;;4.55;1.38;;;26.60;39.10;;;;;;5053441;28;20414;-71
2021/10/31 03:28:12;;;;;;;3.53;1.20;;;27.20;38.50;;;;;;4001046;28;10001123;-64
2021/10/31 03:30:40;;;;;;;3.15;1.27;;;27.50;39.40;;;;;;5039772;28;20475;-68
2021/10/31 03:33:07;;;;;;;3.78;1.30;;;27.60;38.60;;;;;;5044740;28;20030;-69
2021/10/31 03:35:35;;;;;;;3.25;1.30;;;27.20;39.90;;;;;;5046128;28;20025;-70
2021/10/31 03:38:02;;;;;;;2.97;0.90;;;27.40;39.20;;;;;;5045790;28;20112;-69
2021/10/31 03:40:30;;;;;;;4.22;1.30;;;27.50;39.30;;;;;;5044832;28;20410;-70
2021/10/31 03:42:57;;;;;;;3.42;1.33;;;27.50;38.50;;;;;;5046948;28;20104;-68
2021/10/31 03:45:24;;;;;;;3.40;1.25;;;27.10;39.90;;;;;;5046564;28;20048;-72
2021/10/31 03:47:51;;;;;;;6.97;1.40;;;27.40;39.90;;;;;;5046603;28;20078;-72
2021/10/31 03:50:23;;;;;;;3.55;1.27;;;27.60;40.00;;;;;;5045026;28;20060;-70
2021/10/31 03:52:51;;;;;;;4.28;1.63;;;27.70;40.90;;;;;;5046036;28;20013;-68
2021/10/31 03:55:19;;;;;;;7.03;1.25;;;27.50;41.20;;;;;;5047314;28;20023;-67
2021/10/31 03:57:46;;;;;;;3.97;1.40;;;27.00;41.90;;;;;;5041052;28;20471;-70
2021/10/31 04:00:14;;;;;;;3.13;1.27;;;26.50;41.50;;;;;;5042895;28;20433;-69
2021/10/31 04:02:42;;;;;;;4.15;1.30;;;25.90;42.90;;;;;;5037949;28;20101;-69
2021/10/31 04:05:11;;;;;;;2.92;1.20;;;25.90;44.00;;;;;;5046755;28;20025;-64
2021/10/31 04:07:38;;;;;;;3.67;1.33;;;25.90;44.90;;;;;;5047356;28;20021;-72
2021/10/31 04:10:06;;;;;;;4.43;1.27;;;25.80;45.50;;;;;;5047427;28;20489;-68
2021/10/31 04:12:33;;;;;;;3.78;1.00;;;25.80;46.60;;;;;;5039267;28;20026;-67
2021/10/31 04:15:00;;;;;;;6.38;1.70;;;26.10;45.30;;;;;;5042925;28;20083;-67
2021/10/31 04:17:27;;;;;;;3.95;1.67;;;25.90;45.10;;;;;;5053431;28;20122;-69
2021/10/31 04:19:54;;;;;;;3.83;1.02;;;25.90;44.50;;;;;;5043800;28;20131;-67
2021/10/31 04:22:21;;;;;;;4.38;1.17;;;25.60;45.70;;;;;;5048136;28;20064;-68
2021/10/31 04:24:48;;;;;;;3.00;1.25;;;25.30;47.70;;;;;;5042682;28;20494;-69
2021/10/31 04:27:15;;;;;;;3.40;1.15;;;25.70;46.60;;;;;;5038101;28;20036;-71
2021/10/31 04:29:42;;;;;;;4.75;1.08;;;25.80;46.20;;;;;;5038626;28;20025;-69
2021/10/31 04:32:10;;;;;;;4.72;1.27;;;25.70;45.80;;;;;;5045287;28;20021;-65
2021/10/31 04:34:37;;;;;;;5.70;1.25;;;25.40;47.10;;;;;;5039205;28;20032;-67
2021/10/31 04:37:04;;;;;;;3.55;1.20;;;25.40;47.30;;;;;;5027937;28;20025;-71
2021/10/31 04:39:31;;;;;;;4.55;1.17;;;25.60;48.30;;;;;;5042260;28;20032;-72
2021/10/31 04:42:05;;;;;;;1.80;1.13;;;26.20;46.30;;;;;;5046038;28;20029;-65
2021/10/31 04:44:33;;;;;;;7.35;2.83;;;26.60;45.70;;;;;;5044957;28;20029;-68
2021/10/31 04:47:01;;;;;;;3.08;0.98;;;26.90;46.40;;;;;;5043528;28;20606;-68
2021/10/31 04:49:29;;;;;;;4.03;1.25;;;26.50;45.30;;;;;;5047056;28;20091;-68
2021/10/31 04:51:56;;;;;;;5.38;1.10;;;26.60;46.10;;;;;;5044046;28;20395;-69
2021/10/31 04:54:24;;;;;;;3.72;1.38;;;26.50;45.30;;;;;;5043877;28;20048;-69
2021/10/31 04:56:52;;;;;;;4.65;1.30;;;26.50;46.20;;;;;;5043933;28;20364;-69
2021/10/31 04:59:19;;;;;;;10.07;1.65;;;26.50;46.80;;;;;;5039372;28;20029;-69
2021/10/31 05:01:46;;;;;;;5.95;1.00;;;26.60;45.60;;;;;;5045277;28;20024;-70
2021/10/31 05:04:14;;;;;;;4.80;1.42;;;26.70;46.00;;;;;;5039629;28;20109;-68
2021/10/31 05:06:41;;;;;;;4.43;1.30;;;26.80;46.90;;;;;;5046381;28;20502;-69
2021/10/31 05:09:07;;;;;;;4.10;2.00;;;26.90;46.50;;;;;;5042805;28;20025;-66
2021/10/31 05:11:34;;;;;;;4.85;1.50;;;27.00;45.90;;;;;;5045806;28;20064;-70
2021/10/31 05:14:01;;;;;;;3.67;1.13;;;27.40;46.60;;;;;;5044699;28;20434;-67
2021/10/31 05:16:28;;;;;;;5.57;1.33;;;27.60;45.30;;;;;;5044234;28;20092;-68
2021/10/31 05:18:57;;;;;;;4.30;1.23;;;27.80;45.50;;;;;;5041577;28;20026;-67
2021/10/31 05:21:24;;;;;;;5.38;0.93;;;28.10;44.70;;;;;;5039700;28;20116;-69
2021/10/31 05:23:51;;;;;;;2.63;0.90;;;28.20;44.60;;;;;;5045361;28;20029;-69
2021/10/31 05:26:18;;;;;;;4.43;1.10;;;28.20;44.60;;;;;;5046269;28;20120;-68
2021/10/31 05:28:45;;;;;;;4.93;1.23;;;28.00;46.10;;;;;;5043490;28;20059;-68
2021/10/31 05:31:12;;;;;;;3.10;1.10;;;28.10;44.70;;;;;;5050127;28;20143;-69
2021/10/31 05:33:39;;;;;;;3.50;1.30;;;28.30;45.50;;;;;;5046142;28;20542;-68
2021/10/31 05:36:06;;;;;;;3.85;1.10;;;28.40;45.00;;;;;;5049285;28;20112;-68
2021/10/31 05:38:33;;;;;;;4.00;1.10;;;28.40;43.20;;;;;;5042576;28;20059;-67
2021/10/31 05:41:03;;;;;;;3.03;1.02;;;28.40;42.90;;;;;;5047967;28;20025;-70
2021/10/31 05:43:30;;;;;;;2.70;1.13;;;28.10;44.00;;;;;;5038726;28;20036;-68
2021/10/31 05:45:58;;;;;;;4.65;1.52;;;27.80;43.90;;;;;;5039025;28;20471;-67
2021/10/31 05:48:26;;;;;;;4.93;3.92;;;27.80;45.00;;;;;;5043891;28;20102;-71
2021/10/31 05:50:57;;;;;;;2.30;1.10;;;27.90;45.00;;;;;;5036312;28;20616;-70
2021/10/31 05:53:24;;;;;;;5.60;1.63;;;27.90;43.10;;;;;;5043611;28;20071;-66
2021/10/31 05:55:51;;;;;;;5.50;1.52;;;27.70;43.60;;;;;;5043926;28;20338;-63
2021/10/31 05:58:18;;;;;;;3.38;1.30;;;26.90;45.30;;;;;;5045450;28;20032;-66
2021/10/31 06:00:47;;;;;;;4.97;1.15;;;26.50;46.20;;;;;;5042465;28;20029;-67
2021/10/31 06:03:13;;;;;;;3.70;1.27;;;26.50;47.40;;;;;;5046694;28;20062;-70
2021/10/31 06:05:44;;;;;;;3.22;1.13;;;25.80;48.20;;;;;;5042204;28;20313;-69
2021/10/31 06:08:14;;;;;;;4.45;1.27;;;25.80;49.80;;;;;;5041284;28;20450;-70
2021/10/31 06:10:43;;;;;;;6.38;1.10;;;26.30;48.90;;;;;;5041520;28;20033;-65
2021/10/31 06:13:10;;;;;;;3.90;1.27;;;26.80;48.00;;;;;;5045419;28;20093;-70
2021/10/31 06:15:38;;;;;;;8.88;4.40;;;27.30;46.60;;;;;;5042113;28;20537;-73
2021/10/31 06:18:05;;;;;;;6.53;1.73;;;27.20;45.70;;;;;;5060051;28;20059;-62
2021/10/31 06:20:32;;;;;;;3.88;1.23;;;27.00;46.80;;;;;;5042660;28;20112;-66
2021/10/31 06:22:59;;;;;;;6.15;1.42;;;27.70;45.80;;;;;;5046639;28;20114;-72
2021/10/31 06:25:26;;;;;;;5.13;2.10;;;27.70;44.60;;;;;;5045608;28;20039;-67
2021/10/31 06:27:54;;;;;;;2.25;0.90;;;27.60;44.80;;;;;;5042599;28;20063;-73
2021/10/31 06:30:21;;;;;;;6.70;3.40;;;27.40;45.70;;;;;;5045991;28;20029;-70
2021/10/31 06:32:49;;;;;;;5.40;1.02;;;27.10;46.70;;;;;;5047410;28;20060;-69
2021/10/31 06:35:16;;;;;;;2.60;1.05;;;27.60;45.20;;;;;;5046105;28;20025;-72
2021/10/31 06:37:43;;;;;;;4.15;0.85;;;27.80;46.30;;;;;;5046072;28;20029;-73
2021/10/31 06:40:11;;;;;;;2.88;1.00;;;27.50;45.30;;;;;;5045783;28;20157;-70
2021/10/31 06:42:38;;;;;;;2.10;1.02;;;27.60;43.70;;;;;;5045442;28;20025;-70
2021/10/31 06:45:06;;;;;;;2.38;1.00;;;27.20;44.90;;;;;;5040241;28;21182;-72
2021/10/31 06:47:33;;;;;;;4.55;0.95;;;27.10;45.20;;;;;;5039283;28;20056;-75
2021/10/31 06:50:00;;;;;;;3.17;0.80;;;27.20;44.70;;;;;;5045499;28;20648;-70
2021/10/31 06:52:27;;;;;;;4.60;0.90;;;27.50;46.00;;;;;;5043099;28;20029;-71
2021/10/31 06:54:54;;;;;;;4.43;0.82;;;27.80;43.60;;;;;;5032256;28;20106;-70
2021/10/31 06:57:24;;;;;;;4.88;1.23;;;28.00;43.60;;;;;;5026942;28;20080;-70
2021/10/31 06:59:51;;;;;;;4.05;1.00;;;27.90;44.00;;;;;;5053854;28;20868;-72
2021/10/31 07:02:18;;;;;;;4.22;1.13;;;28.00;43.60;;;;;;5054394;28;20686;-70
2021/10/31 07:04:45;;;;;;;3.28;1.15;;;28.30;44.30;;;;;;5054073;28;20177;-71
2021/10/31 07:07:14;;;;;;;2.15;1.00;;;28.40;43.50;;;;;;5051275;28;20114;-68
2021/10/31 07:09:42;;;;;;;3.65;1.20;;;27.80;43.30;;;;;;5055099;28;20108;-72
2021/10/31 07:12:09;;;;;;;3.33;0.82;;;27.40;45.30;;;;;;5051812;28;20078;-68
2021/10/31 07:14:36;;;;;;;3.92;1.00;;;27.30;45.40;;;;;;5049965;28;20025;-71
2021/10/31 07:17:03;;;;;;;4.88;1.20;;;27.40;44.70;;;;;;5051265;28;20731;-69
2021/10/31 07:19:30;;;;;;;4.22;1.42;;;27.60;44.90;;;;;;5049836;28;20036;-71
2021/10/31 07:21:58;;;;;;;7.20;2.75;;;27.90;44.00;;;;;;5056817;28;20565;-72
2021/10/31 07:24:24;;;;;;;5.40;1.60;;;27.60;45.90;;;;;;5051507;28;20017;-72
2021/10/31 07:26:51;;;;;;;3.75;1.15;;;27.50;48.00;;;;;;5049254;28;20029;-69
2021/10/31 07:29:19;;;;;;;6.93;1.85;;;27.50;45.70;;;;;;5047751;28;20040;-67
2021/10/31 07:31:47;;;;;;;3.15;1.30;;;27.50;47.90;;;;;;5053216;28;21609;-69
2021/10/31 07:34:14;;;;;;;2.53;0.93;;;27.40;46.00;;;;;;5045168;28;20513;-66
2021/10/31 07:36:42;;;;;;;5.43;1.50;;;27.00;46.50;;;;;;5050709;28;20020;-70
2021/10/31 07:39:10;;;;;;;3.95;1.23;;;26.40;47.80;;;;;;5046403;28;20770;-70
2021/10/31 07:41:38;;;;;;;4.78;0.98;;;26.20;48.10;;;;;;5052611;28;20048;-67
2021/10/31 07:44:05;;;;;;;7.18;1.40;;;25.90;51.00;;;;;;5050639;28;20150;-69
2021/10/31 07:46:34;;;;;;;6.18;0.98;;;25.90;48.60;;;;;;5049676;28;20028;-67
2021/10/31 07:49:02;;;;;;;3.65;1.00;;;25.40;49.90;;;;;;5054908;28;20471;-69
2021/10/31 07:51:29;;;;;;;3.22;1.08;;;25.10;50.60;;;;;;5051818;28;20070;-69
2021/10/31 07:53:57;;;;;;;4.35;1.42;;;24.60;51.10;;;;;;5054263;28;20055;-71
2021/10/31 07:56:27;;;;;;;4.80;1.25;;;24.40;51.50;;;;;;5048889;28;20093;-70
2021/10/31 07:58:56;;;;;;;4.45;1.00;;;24.10;51.50;;;;;;5047666;28;20097;-71
2021/10/31 08:01:24;;;;;;;3.63;1.00;;;23.60;53.00;;;;;;5054235;28;20534;-70
2021/10/31 08:03:55;;;;;;;4.53;1.17;;;22.80;57.30;;;;;;5056725;28;20048;-69
2021/10/31 08:06:23;;;;;;;5.00;0.90;;;22.00;57.60;;;;;;5053447;28;20133;-69
2021/10/31 08:08:50;;;;;;;3.47;1.52;;;21.40;59.70;;;;;;5052491;28;20017;-69
2021/10/31 08:11:17;;;;;;;2.17;1.00;;;21.10;62.20;;;;;;5058035;28;20020;-68
2021/10/31 08:13:45;;;;;;;2.55;1.02;;;20.80;62.80;;;;;;5054399;28;20031;-72
2021/10/31 08:16:12;;;;;;;1.98;1.00;;;20.60;65.50;;;;;;5050925;28;20025;-68
2021/10/31 08:18:39;;;;;;;3.17;1.08;;;20.40;67.80;;;;;;5055835;28;20025;-72
2021/10/31 08:21:06;;;;;;;4.63;0.82;;;20.10;68.10;;;;;;5054387;28;20056;-73
2021/10/31 08:23:33;;;;;;;6.28;1.08;;;19.80;69.40;;;;;;5053393;28;20115;-72
2021/10/31 08:26:01;;;;;;;4.38;1.40;;;19.70;73.40;;;;;;5052715;28;20124;-69
2021/10/31 08:28:28;;;;;;;2.33;0.93;;;19.50;72.90;;;;;;5051710;28;20036;-71
2021/10/31 08:30:57;;;;;;;3.88;0.93;;;19.30;76.90;;;;;;5051746;28;20108;-72
2021/10/31 08:33:30;;;;;;;6.55;1.13;;;19.20;78.00;;;;;;5055083;28;20075;-70
2021/10/31 08:35:59;;;;;;;4.82;1.50;;;19.20;80.10;;;;;;5055029;28;20571;-71
2021/10/31 08:38:26;;;;;;;4.78;1.58;;;19.00;79.90;;;;;;5054339;28;20037;-70
2021/10/31 08:40:54;;;;;;;5.72;1.30;;;18.80;80.10;;;;;;5055973;28;20048;-70
2021/10/31 08:43:22;;;;;;;8.07;1.77;;;18.80;83.20;;;;;;5058132;28;20091;-70
2021/10/31 08:45:51;;;;;;;4.88;1.48;;;18.80;83.10;;;;;;5049738;28;20036;-70
2021/10/31 08:48:18;;;;;;;2.63;1.02;;;18.70;83.50;;;;;;5049016;28;20029;-72
2021/10/31 08:50:47;;;;;;;5.00;1.08;;;18.50;83.70;;;;;;5049099;28;20033;-73
2021/10/31 08:53:16;;;;;;;6.10;1.85;;;18.40;83.60;;;;;;5045106;28;20057;-68
2021/10/31 08:55:43;;;;;;;4.95;1.00;;;18.30;84.80;;;;;;5039928;28;20086;-71
2021/10/31 08:58:11;;;;;;;5.63;1.10;;;18.20;86.10;;;;;;5049503;28;20074;-69
2021/10/31 09:00:39;;;;;;;5.60;1.15;;;18.30;87.00;;;;;;5049060;28;20446;-69
2021/10/31 09:03:07;;;;;;;3.00;0.90;;;18.20;87.20;;;;;;5048809;28;20024;-70
2021/10/31 09:05:35;;;;;;;2.33;1.08;;;18.10;86.40;;;;;;5048872;28;20100;-71
2021/10/31 09:08:04;;;;;;;5.97;1.20;;;18.00;87.50;;;;;;5048909;28;20029;-69
2021/10/31 09:10:31;;;;;;;2.78;1.42;;;18.00;88.70;;;;;;5049397;28;20029;-68
2021/10/31 09:12:59;;;;;;;6.65;1.10;;;17.90;88.00;;;;;;5043733;28;20076;-68
2021/10/31 09:15:28;;;;;;;3.03;0.73;;;17.80;89.30;;;;;;5039489;28;20031;-69
2021/10/31 09:17:56;;;;;;;4.90;1.00;;;17.80;90.30;;;;;;5045649;28;20102;-69
2021/10/31 09:20:25;;;;;;;3.85;1.20;;;17.70;89.80;;;;;;5048350;28;20526;-69
2021/10/31 09:22:57;;;;;;;8.40;1.75;;;17.60;90.80;;;;;;5045847;28;20478;-67
2021/10/31 09:25:25;;;;;;;4.40;1.23;;;17.60;90.80;;;;;;5048797;28;20021;-68
2021/10/31 09:27:57;;;;;;;4.68;1.10;;;17.60;90.60;;;;;;5045596;28;20114;-68
2021/10/31 09:30:26;;;;;;;4.50;1.35;;;17.50;90.80;;;;;;5039304;28;20083;-71
2021/10/31 09:32:54;;;;;;;2.45;0.90;;;17.40;92.40;;;;;;5046782;28;20040;-71
2021/10/31 09:35:26;;;;;;;3.10;1.08;;;17.50;91.80;;;;;;5047661;28;20020;-69
2021/10/31 09:37:57;;;;;;;5.43;1.92;;;17.50;92.10;;;;;;5048589;28;20028;-73
2021/10/31 09:40:26;;;;;;;3.72;1.13;;;17.40;92.70;;;;;;5048666;28;20037;-74
2021/10/31 09:42:55;;;;;;;6.25;1.33;;;17.30;92.70;;;;;;5049150;28;20762;-66
2021/10/31 09:45:23;;;;;;;4.68;1.27;;;17.30;93.20;;;;;;5048694;28;20566;-65
2021/10/31 09:47:59;;;;;;;5.03;1.17;;;17.40;93.40;;;;;;5049198;28;20776;-65
2021/10/31 09:50:31;;;;;;;5.18;1.00;;;17.30;93.00;;;;;;5046008;28;20037;-68
2021/10/31 09:53:00;;;;;;;3.10;1.13;;;17.20;93.50;;;;;;5047672;28;20051;-70
2021/10/31 09:55:28;;;;;;;2.92;1.20;;;17.00;94.00;;;;;;5048395;28;20055;-68
2021/10/31 09:57:56;;;;;;;5.07;1.17;;;16.90;94.10;;;;;;5048613;28;20021;-67
2021/10/31 10:00:44;;;;;;;3.90;1.10;;;17.00;94.20;;;;;;5048636;28;20052;-70
2021/10/31 10:03:25;;;;;;;4.63;1.30;;;16.80;94.50;;;;;;5047618;28;20384;-72
2021/10/31 10:06:18;;;;;;;2.88;1.10;;;16.80;94.70;;;;;;5048908;28;20017;-73
2021/10/31 10:09:05;;;;;;;4.25;1.15;;;16.70;95.20;;;;;;5047478;28;20568;-68
2021/10/31 10:11:44;;;;;;;2.92;1.02;;;16.60;95.60;;;;;;5046168;28;20028;-65
2021/10/31 10:14:24;;;;;;;4.63;1.85;;;16.60;95.70;;;;;;5047795;28;20543;-68
2021/10/31 10:17:03;;;;;;;5.80;1.40;;;16.60;96.90;;;;;;5047826;28;20015;-65
2021/10/31 10:19:45;;;;;;;5.68;1.98;;;16.60;96.00;;;;;;5042506;28;20129;-73
2021/10/31 10:22:17;;;;;;;4.00;1.25;;;16.60;96.00;;;;;;5048176;28;20553;-73
2021/10/31 10:25:01;;;;;;;4.68;1.30;;;16.40;96.30;;;;;;5046215;28;20028;-67
2021/10/31 10:27:34;;;;;;;3.22;1.33;;;16.30;97.10;;;;;;5039302;28;20068;-68
2021/10/31 10:30:12;;;;;;;5.40;1.80;;;16.30;96.90;;;;;;5036317;28;20379;-72
2021/10/31 10:32:49;;;;;;;5.00;1.25;;;16.20;98.00;;;;;;5036598;28;20077;-69
2021/10/31 10:35:21;;;;;;;5.07;1.27;;;16.30;97.70;;;;;;5045193;28;20500;-66
2021/10/31 10:37:49;;;;;;;4.68;1.25;;;16.50;96.90;;;;;;5046023;28;20402;-72
2021/10/31 10:40:24;;;;;;;5.75;1.30;;;16.40;96.70;;;;;;5042124;28;20021;-71
2021/10/31 10:42:56;;;;;;;3.30;1.10;;;16.30;97.10;;;;;;5046907;28;20532;-71
2021/10/31 10:45:27;;;;;;;3.50;1.38;;;16.10;97.40;;;;;;5040049;28;20032;-67
2021/10/31 10:48:01;;;;;;;4.05;1.02;;;16.10;97.70;;;;;;5045586;28;20029;-67
2021/10/31 10:50:38;;;;;;;3.58;1.10;;;15.90;98.00;;;;;;5043474;28;20032;-70
2021/10/31 10:53:19;;;;;;;4.80;1.30;;;15.90;98.80;;;;;;5045339;28;20040;-71
2021/10/31 10:55:47;;;;;;;5.03;1.38;;;15.90;98.50;;;;;;5045396;28;20522;-68
2021/10/31 10:58:16;;;;;;;3.55;1.00;;;15.80;98.80;;;;;;5045524;28;20068;-73
2021/10/31 11:00:46;;;;;;;7.32;1.48;;;15.80;98.70;;;;;;5058967;28;20032;-69
2021/10/31 11:03:20;;;;;;;4.25;1.55;;;15.80;99.10;;;;;;5044549;28;20032;-69
2021/10/31 11:06:02;;;;;;;3.17;1.08;;;15.90;98.80;;;;;;5045251;28;20096;-69
2021/10/31 11:08:29;;;;;;;3.33;1.30;;;16.00;98.70;;;;;;5041140;28;20021;-72
2021/10/31 11:11:05;;;;;;;2.95;1.10;;;15.90;99.10;;;;;;5045221;28;20505;-71
2021/10/31 11:13:44;;;;;;;2.22;1.20;;;15.80;99.50;;;;;;5042844;28;20031;-68
2021/10/31 11:16:13;;;;;;;3.70;1.63;;;15.60;99.70;;;;;;5046324;28;20449;-70
2021/10/31 11:18:40;;;;;;;2.58;1.30;;;15.50;99.90;;;;;;4695406;28;10000168;-71
2021/10/31 11:21:07;;;;;;;3.40;1.02;;;15.30;99.90;;;;;;5045068;28;20063;-70
2021/10/31 11:23:36;;;;;;;4.55;1.58;;;15.30;99.90;;;;;;5045243;28;20453;-69
2021/10/31 11:26:05;;;;;;;3.88;2.13;;;15.20;99.90;;;;;;5045205;28;20091;-69
2021/10/31 11:28:32;;;;;;;8.48;1.58;;;15.20;99.90;;;;;;5042909;28;20028;-68
2021/10/31 11:31:01;;;;;;;4.72;1.20;;;15.10;99.90;;;;;;5044874;28;20021;-68
2021/10/31 11:33:28;;;;;;;4.53;1.30;;;15.00;99.90;;;;;;5044789;28;20017;-72
2021/10/31 11:35:57;;;;;;;4.25;1.30;;;15.00;99.90;;;;;;5048821;28;20565;-72
2021/10/31 11:38:26;;;;;;;6.20;1.75;;;15.00;99.90;;;;;;5051773;28;20390;-69
2021/10/31 11:41:11;;;;;;;7.55;1.85;;;14.90;99.90;;;;;;5051709;28;20028;-69
2021/10/31 11:43:48;;;;;;;5.38;1.80;;;14.80;99.90;;;;;;5046056;28;20025;-69
2021/10/31 11:46:15;;;;;;;4.68;1.30;;;14.80;99.90;;;;;;5045033;28;20115;-73
2021/10/31 11:48:57;;;;;;;4.60;1.58;;;14.80;99.90;;;;;;5051549;28;20394;-73
2021/10/31 11:51:39;;;;;;;7.18;1.50;;;14.80;99.90;;;;;;5049850;28;20411;-70
2021/10/31 11:54:17;;;;;;;8.25;2.25;;;14.70;99.90;;;;;;5050666;28;20132;-72
2021/10/31 11:56:51;;;;;;;5.78;1.83;;;14.60;99.90;;;;;;5051157;28;20024;-73
2021/10/31 11:59:20;;;;;;;4.38;1.77;;;14.50;99.90;;;;;;5051329;28;20029;-69
2021/10/31 12:01:53;;;;;;;10.07;1.85;;;14.40;99.90;;;;;;5051389;28;20021;-74
2021/10/31 12:07:44;;;;;;;5.38;1.20;;;14.30;99.90;;;;;;5049956;28;20135;-71
2021/10/31 12:10:30;;;;;;;4.97;1.98;;;14.20;99.90;;;;;;5054235;28;20040;-69
2021/10/31 12:13:19;;;;;;;6.68;1.92;;;14.10;99.90;;;;;;5053321;28;20027;-71
2021/10/31 12:16:04;;;;;;;4.22;1.73;;;14.00;99.90;;;;;;5054849;28;20017;-69
2021/10/31 12:18:56;;;;;;;5.18;1.30;;;13.90;99.90;;;;;;5053103;28;20553;-69
2021/10/31 12:21:33;;;;;;;5.45;1.50;;;13.90;99.90;;;;;;5054343;28;20086;-69
2021/10/31 12:24:08;;;;;;;4.95;1.33;;;14.00;99.90;;;;;;5054957;28;20012;-73
2021/10/31 12:26:41;;;;;;;4.28;1.95;;;13.90;99.90;;;;;;5054054;28;20031;-68
2021/10/31 12:29:16;;;;;;;5.78;1.70;;;13.90;99.90;;;;;;5052655;28;20043;-70
2021/10/31 12:32:02;;;;;;;6.22;1.95;;;13.90;99.90;;;;;;5048516;28;20020;-69
2021/10/31 12:34:40;;;;;;;2.92;1.48;;;13.80;99.90;;;;;;5056946;28;20024;-69
2021/10/31 12:37:26;;;;;;;3.85;1.45;;;13.80;99.90;;;;;;5047989;28;20021;-72
2021/10/31 12:40:18;;;;;;;4.35;1.45;;;13.90;99.90;;;;;;5050795;28;20020;-74
2021/10/31 12:42:50;;;;;;;3.85;1.60;;;13.90;99.90;;;;;;5055101;28;20017;-68
2021/10/31 12:45:26;;;;;;;5.32;1.50;;;13.90;99.90;;;;;;5047543;28;20041;-71
2021/10/31 12:48:12;;;;;;;5.53;1.52;;;13.90;99.90;;;;;;5050936;28;20071;-72
2021/10/31 12:50:51;;;;;;;6.78;1.55;;;13.90;99.90;;;;;;5050264;28;20029;-74
2021/10/31 12:53:19;;;;;;;2.72;1.33;;;13.90;99.90;;;;;;5058260;22;20063;-74
2021/10/31 12:55:47;;;;;;;6.45;1.50;;;13.80;99.90;;;;;;5051112;28;20036;-74
2021/10/31 12:58:20;;;;;;;5.60;1.58;;;13.70;99.90;;;;;;5046825;28;20036;-72
2021/10/31 13:00:53;;;;;;;6.13;1.40;;;13.70;99.90;;;;;;5045028;28;20059;-68
2021/10/31 13:03:24;;;;;;;5.63;1.55;;;13.70;99.90;;;;;;5050040;28;20108;-72
2021/10/31 13:05:51;;;;;;;3.15;1.50;;;13.70;99.90;;;;;;5043846;28;20035;-72
2021/10/31 13:08:20;;;;;;;4.68;1.50;;;13.60;99.90;;;;;;5044893;28;20017;-67